Time,TemperatureF,DewpointF,PressureIn,WindDirection,WindDirectionDegrees,WindSpeedMPH,WindSpeedGustMPH,Humidity,HourlyPrecipIn,Conditions,Clouds,dailyrainin,SoftwareType,DateUTC
2013-11-08 00:10:00,33.3,30.0,29.86,NE,55,0.0,-999.0,88,-99.99,,,0.00,weatherlink.com 1.10,2013-11-08 05:10:00,
2013-11-08 00:25:00,33.1,30.0,29.86,NE,55,0.0,-999.0,87,-99.99,,,0.00,weatherlink.com 1.10,2013-11-08 05:25:00,
2013-11-08 00:41:00,33.2,30.0,29.86,NE,55,0.0,-999.0,87,-99.99,,,0.00,weatherlink.com 1.10,2013-11-08 05:41:00,
2013-11-08 00:56:00,33.3,29.0,29.87,ENE,57,0.0,-999.0,85,-99.99,,,0.00,weatherlink.com 1.10,2013-11-08 05:56:00,
2013-11-08 01:11:00,33.0,28.0,29.87,NW,308,0.0,-999.0,82,-99.99,,,0.00,weatherlink.com 1.10,2013-11-08 06:11:00,
2013-11-08 01:26:00,32.7,28.0,29.88,NW,308,0.0,-999.0,82,-99.99,,,0.00,weatherlink.com 1.10,2013-11-08 06:26:00,
2013-11-08 01:41:00,32.0,27.0,29.88,NW,308,0.0,-999.0,83,-99.99,,,0.00,weatherlink.com 1.10,2013-11-08 06:41:00,
2013-11-08 01:56:00,31.5,28.0,29.88,NW,308,0.0,-999.0,86,-99.99,,,0.00,weatherlink.com 1.10,2013-11-08 06:56:00,
2013-11-08 02:11:00,31.3,27.0,29.87,SSW,208,0.0,-999.0,85,-99.99,,,0.00,weatherlink.com 1.10,2013-11-08 07:11:00,
2013-11-08 02:26:00,30.8,27.0,29.87,SSW,208,0.0,-999.0,85,-99.99,,,0.00,weatherlink.com 1.10,2013-11-08 07:26:00,
2013-11-08 02:41:00,30.3,26.0,29.87,SSW,208,0.0,-999.0,84,-99.99,,,0.00,weatherlink.com 1.10,2013-11-08 07:41:00,
2013-11-08 02:56:00,30.0,27.0,29.88,SSW,208,0.0,-999.0,87,-99.99,,,0.00,weatherlink.com 1.10,2013-11-08 07:56:00,
2013-11-08 03:11:00,29.7,26.0,29.89,SSW,208,0.0,-999.0,85,-99.99,,,0.00,weatherlink.com 1.10,2013-11-08 08:11:00,
2013-11-08 03:26:00,29.4,25.0,29.89,SSW,208,0.0,-999.0,84,-99.99,,,0.00,weatherlink.com 1.10,2013-11-08 08:26:00,
2013-11-08 03:41:00,29.1,25.0,29.90,SSW,208,0.0,-999.0,85,-99.99,,,0.00,weatherlink.com 1.10,2013-11-08 08:41:00,
2013-11-08 03:56:00,28.6,24.0,29.90,SSW,208,0.0,-999.0,83,-99.99,,,0.00,weatherlink.com 1.10,2013-11-08 08:56:00,
2013-11-08 04:26:00,27.7,24.0,29.91,SSW,208,0.0,-999.0,85,-99.99,,,0.00,weatherlink.com 1.10,2013-11-08 09:26:00,
2013-11-08 04:41:00,27.6,24.0,29.91,SSW,208,0.0,-999.0,87,-99.99,,,0.00,weatherlink.com 1.10,2013-11-08 09:41:00,
2013-11-08 04:56:00,27.6,24.0,29.91,SSW,208,0.0,-999.0,86,-99.99,,,0.00,weatherlink.com 1.10,2013-11-08 09:56:00,
2013-11-08 05:11:00,27.4,24.0,29.92,SSW,208,0.0,-999.0,86,-99.99,,,0.00,weatherlink.com 1.10,2013-11-08 10:11:00,
2013-11-08 05:26:00,26.8,23.0,29.92,SSW,208,0.0,-999.0,85,-99.99,,,0.00,weatherlink.com 1.10,2013-11-08 10:26:00,
2013-11-08 05:41:00,26.2,23.0,29.93,SSW,208,0.0,-999.0,87,-99.99,,,0.00,weatherlink.com 1.10,2013-11-08 10:41:00,
2013-11-08 05:56:00,25.8,23.0,29.93,SSW,208,0.0,-999.0,88,-99.99,,,0.00,weatherlink.com 1.10,2013-11-08 10:56:00,
2013-11-08 06:11:00,25.6,23.0,29.94,SSW,208,0.0,-999.0,88,-99.99,,,0.00,weatherlink.com 1.10,2013-11-08 11:11:00,
2013-11-08 06:26:00,25.2,22.0,29.94,SSW,208,0.0,-999.0,89,-99.99,,,0.00,weatherlink.com 1.10,2013-11-08 11:26:00,
2013-11-08 06:41:00,25.4,23.0,29.94,SSW,208,0.0,-999.0,90,-99.99,,,0.00,weatherlink.com 1.10,2013-11-08 11:41:00,
2013-11-08 06:55:00,25.6,23.0,29.94,SSW,208,0.0,-999.0,91,-99.99,,,0.00,weatherlink.com 1.10,2013-11-08 11:55:00,
2013-11-08 07:11:00,27.1,25.0,29.94,SSW,208,0.0,-999.0,92,-99.99,,,0.00,weatherlink.com 1.10,2013-11-08 12:11:00,
2013-11-08 07:26:00,28.5,26.0,29.95,SSW,208,0.0,-999.0,89,-99.99,,,0.00,weatherlink.com 1.10,2013-11-08 12:26:00,
2013-11-08 07:41:00,29.6,26.0,29.95,SSW,208,0.0,-999.0,87,-99.99,,,0.00,weatherlink.com 1.10,2013-11-08 12:41:00,
2013-11-08 07:56:00,31.0,27.0,29.95,SSE,155,0.0,-999.0,85,-99.99,,,0.00,weatherlink.com 1.10,2013-11-08 12:56:00,
2013-11-08 08:11:00,33.4,28.0,29.95,ENE,65,0.0,-999.0,80,-99.99,,,0.00,weatherlink.com 1.10,2013-11-08 13:11:00,
2013-11-08 08:27:00,34.4,29.0,29.96,ENE,59,0.0,-999.0,79,-99.99,,,0.00,weatherlink.com 1.10,2013-11-08 13:27:00,
2013-11-08 08:42:00,35.5,30.0,29.96,SE,134,1.0,-999.0,80,-99.99,,,0.00,weatherlink.com 1.10,2013-11-08 13:42:00,
2013-11-08 08:57:00,37.0,32.0,29.95,North,355,0.0,-999.0,82,-99.99,,,0.00,weatherlink.com 1.10,2013-11-08 13:57:00,
2013-11-08 09:12:00,38.8,33.0,29.95,West,273,0.0,-999.0,81,-99.99,,,0.00,weatherlink.com 1.10,2013-11-08 14:12:00,
2013-11-08 09:27:00,39.8,33.0,29.95,SSW,192,0.0,-999.0,78,-99.99,,,0.00,weatherlink.com 1.10,2013-11-08 14:27:00,
2013-11-08 09:42:00,40.2,34.0,29.95,WNW,290,0.0,-999.0,77,-99.99,,,0.00,weatherlink.com 1.10,2013-11-08 14:42:00,
2013-11-08 09:57:00,41.0,34.0,29.95,East,96,0.0,-999.0,76,-99.99,,,0.00,weatherlink.com 1.10,2013-11-08 14:57:00,
2013-11-08 10:12:00,44.0,36.0,29.95,WSW,238,0.0,-999.0,74,-99.99,,,0.00,weatherlink.com 1.10,2013-11-08 15:12:00,
2013-11-08 10:27:00,45.6,35.0,29.95,WSW,238,0.0,-999.0,67,-99.99,,,0.01,weatherlink.com 1.10,2013-11-08 15:27:00,
2013-11-08 10:42:00,45.0,35.0,29.95,WNW,297,0.0,-999.0,69,-99.99,,,0.01,weatherlink.com 1.10,2013-11-08 15:42:00,
2013-11-08 10:57:00,46.2,34.0,29.94,SSW,211,1.0,-999.0,62,-99.99,,,0.01,weatherlink.com 1.10,2013-11-08 15:57:00,
2013-11-08 11:12:00,47.0,34.0,29.94,WNW,288,0.0,-999.0,60,-99.99,,,0.01,weatherlink.com 1.10,2013-11-08 16:12:00,
2013-11-08 11:27:00,46.0,32.0,29.94,NW,305,1.0,-999.0,59,-99.99,,,0.01,weatherlink.com 1.10,2013-11-08 16:27:00,
2013-11-08 11:42:00,46.6,32.0,29.93,WSW,254,0.0,-999.0,57,-99.99,,,0.01,weatherlink.com 1.10,2013-11-08 16:42:00,
2013-11-08 11:57:00,47.9,33.0,29.92,WSW,248,3.0,-999.0,57,-99.99,,,0.01,weatherlink.com 1.10,2013-11-08 16:57:00,
2013-11-08 12:12:00,46.3,33.0,29.92,NE,45,0.0,-999.0,61,-99.99,,,0.01,weatherlink.com 1.10,2013-11-08 17:12:00,
2013-11-08 12:27:00,48.1,32.0,29.91,NNE,17,0.0,-999.0,54,-99.99,,,0.01,weatherlink.com 1.10,2013-11-08 17:27:00,
2013-11-08 12:42:00,48.1,31.0,29.92,NW,314,1.0,-999.0,51,-99.99,,,0.01,weatherlink.com 1.10,2013-11-08 17:42:00,
2013-11-08 12:57:00,45.9,31.0,29.92,SE,146,1.0,-999.0,57,-99.99,,,0.01,weatherlink.com 1.10,2013-11-08 17:57:00,
2013-11-08 13:12:00,45.4,31.0,29.92,NNW,327,2.0,-999.0,57,-99.99,,,0.01,weatherlink.com 1.10,2013-11-08 18:12:00,
2013-11-08 13:27:00,44.5,31.0,29.92,ENE,57,0.0,-999.0,59,-99.99,,,0.01,weatherlink.com 1.10,2013-11-08 18:27:00,
2013-11-08 13:42:00,43.6,32.0,29.93,West,277,1.0,-999.0,64,-99.99,,,0.01,weatherlink.com 1.10,2013-11-08 18:42:00,
2013-11-08 13:57:00,43.9,31.0,29.93,SSW,207,0.0,-999.0,62,-99.99,,,0.01,weatherlink.com 1.10,2013-11-08 18:57:00,
2013-11-08 14:12:00,44.1,30.0,29.93,WNW,294,0.0,-999.0,59,-99.99,,,0.01,weatherlink.com 1.10,2013-11-08 19:12:00,
2013-11-08 14:27:00,43.7,29.0,29.94,SSE,151,2.0,-999.0,56,-99.99,,,0.01,weatherlink.com 1.10,2013-11-08 19:27:00,
2013-11-08 14:42:00,43.4,31.0,29.95,WNW,302,2.0,-999.0,61,-99.99,,,0.01,weatherlink.com 1.10,2013-11-08 19:42:00,
2013-11-08 14:57:00,43.0,29.0,29.95,WSW,244,0.0,-999.0,59,-99.99,,,0.01,weatherlink.com 1.10,2013-11-08 19:57:00,
2013-11-08 15:12:00,42.3,29.0,29.95,NE,40,0.0,-999.0,59,-99.99,,,0.01,weatherlink.com 1.10,2013-11-08 20:12:00,
2013-11-08 15:27:00,41.7,29.0,29.96,West,264,2.0,-999.0,60,-99.99,,,0.01,weatherlink.com 1.10,2013-11-08 20:27:00,
2013-11-08 15:42:00,41.5,30.0,29.96,West,268,0.0,-999.0,64,-99.99,,,0.01,weatherlink.com 1.10,2013-11-08 20:42:00,
2013-11-08 15:57:00,40.9,29.0,29.98,ENE,70,0.0,-999.0,62,-99.99,,,0.01,weatherlink.com 1.10,2013-11-08 20:57:00,
2013-11-08 16:12:00,40.6,29.0,29.99,East,79,0.0,-999.0,63,-99.99,,,0.01,weatherlink.com 1.10,2013-11-08 21:12:00,
2013-11-08 16:27:00,39.8,28.0,30.00,WNW,291,0.0,-999.0,64,-99.99,,,0.01,weatherlink.com 1.10,2013-11-08 21:27:00,
2013-11-08 16:42:00,39.4,29.0,30.00,WSW,253,2.0,-999.0,66,-99.99,,,0.01,weatherlink.com 1.10,2013-11-08 21:42:00,
2013-11-08 16:57:00,39.3,29.0,30.01,ENE,76,0.0,-999.0,66,-99.99,,,0.01,weatherlink.com 1.10,2013-11-08 21:57:00,
2013-11-08 17:12:00,38.9,28.0,30.02,WSW,240,0.0,-999.0,65,-99.99,,,0.01,weatherlink.com 1.10,2013-11-08 22:12:00,
2013-11-08 17:27:00,38.5,27.0,30.04,WSW,243,1.0,-999.0,63,-99.99,,,0.01,weatherlink.com 1.10,2013-11-08 22:27:00,
2013-11-08 17:43:00,37.8,25.0,30.05,NW,309,0.0,-999.0,60,-99.99,,,0.01,weatherlink.com 1.10,2013-11-08 22:43:00,
2013-11-08 17:58:00,36.8,24.0,30.05,West,276,0.0,-999.0,60,-99.99,,,0.01,weatherlink.com 1.10,2013-11-08 22:58:00,
2013-11-08 18:13:00,36.5,24.0,30.06,West,276,0.0,-999.0,62,-99.99,,,0.01,weatherlink.com 1.10,2013-11-08 23:13:00,
2013-11-08 18:28:00,36.0,23.0,30.06,WNW,294,0.0,-999.0,59,-99.99,,,0.01,weatherlink.com 1.10,2013-11-08 23:28:00,
2013-11-08 18:43:00,35.3,23.0,30.07,NNE,28,0.0,-999.0,62,-99.99,,,0.01,weatherlink.com 1.10,2013-11-08 23:43:00,
2013-11-08 18:58:00,34.6,23.0,30.08,WSW,255,0.0,-999.0,63,-99.99,,,0.01,weatherlink.com 1.10,2013-11-08 23:58:00,
2013-11-08 19:13:00,34.8,24.0,30.09,North,9,0.0,-999.0,64,-99.99,,,0.01,weatherlink.com 1.10,2013-11-09 00:13:00,
2013-11-08 19:28:00,34.3,23.0,30.09,NW,319,0.0,-999.0,64,-99.99,,,0.01,weatherlink.com 1.10,2013-11-09 00:28:00,
2013-11-08 19:43:00,33.9,24.0,30.09,WSW,246,0.0,-999.0,66,-99.99,,,0.01,weatherlink.com 1.10,2013-11-09 00:43:00,
2013-11-08 19:58:00,33.1,23.0,30.09,WSW,246,0.0,-999.0,66,-99.99,,,0.01,weatherlink.com 1.10,2013-11-09 00:58:00,
2013-11-08 20:13:00,32.9,23.0,30.10,East,79,0.0,-999.0,67,-99.99,,,0.01,weatherlink.com 1.10,2013-11-09 01:13:00,
2013-11-08 20:28:00,32.5,23.0,30.10,East,79,0.0,-999.0,68,-99.99,,,0.01,weatherlink.com 1.10,2013-11-09 01:28:00,
2013-11-08 20:43:00,31.8,23.0,30.11,East,79,0.0,-999.0,71,-99.99,,,0.01,weatherlink.com 1.10,2013-11-09 01:43:00,
2013-11-08 20:58:00,31.2,22.0,30.11,East,79,0.0,-999.0,69,-99.99,,,0.01,weatherlink.com 1.10,2013-11-09 01:58:00,
2013-11-08 21:13:00,30.7,22.0,30.11,East,79,0.0,-999.0,70,-99.99,,,0.01,weatherlink.com 1.10,2013-11-09 02:13:00,
2013-11-08 21:28:00,30.2,22.0,30.11,East,79,0.0,-999.0,72,-99.99,,,0.01,weatherlink.com 1.10,2013-11-09 02:28:00,
2013-11-08 21:43:00,29.5,22.0,30.12,East,79,0.0,-999.0,74,-99.99,,,0.01,weatherlink.com 1.10,2013-11-09 02:43:00,
2013-11-08 21:58:00,28.9,22.0,30.12,East,79,0.0,-999.0,76,-99.99,,,0.01,weatherlink.com 1.10,2013-11-09 02:58:00,
2013-11-08 22:13:00,28.8,23.0,30.12,East,79,0.0,-999.0,78,-99.99,,,0.01,weatherlink.com 1.10,2013-11-09 03:13:00,
2013-11-08 22:28:00,28.5,22.0,30.12,East,79,0.0,-999.0,77,-99.99,,,0.01,weatherlink.com 1.10,2013-11-09 03:28:00,
2013-11-08 22:43:00,28.2,22.0,30.12,East,79,0.0,-999.0,79,-99.99,,,0.01,weatherlink.com 1.10,2013-11-09 03:43:00,
2013-11-08 22:58:00,28.4,23.0,30.12,East,79,0.0,-999.0,80,-99.99,,,0.01,weatherlink.com 1.10,2013-11-09 03:58:00,
2013-11-08 23:13:00,28.6,23.0,30.13,East,79,0.0,-999.0,80,-99.99,,,0.01,weatherlink.com 1.10,2013-11-09 04:13:00,
2013-11-08 23:28:00,29.0,24.0,30.13,East,79,0.0,-999.0,80,-99.99,,,0.01,weatherlink.com 1.10,2013-11-09 04:28:00,
2013-11-08 23:43:00,29.5,24.0,30.13,West,267,0.0,-999.0,80,-99.99,,,0.01,weatherlink.com 1.10,2013-11-09 04:43:00,
2013-11-08 23:58:00,29.7,24.0,30.13,West,271,0.0,-999.0,78,-99.99,,,0.00,weatherlink.com 1.10,2013-11-09 04:58:00,